createdAt,value
2019-02-05T00:00:37.563Z,40.05
2019-02-05T00:03:10.418Z,40.48
2019-02-05T00:05:38.698Z,36.95
2019-02-05T00:08:06.955Z,40.65
2019-02-05T00:10:35.189Z,34.48
2019-02-05T00:13:03.459Z,37.80
2019-02-05T00:15:32.106Z,43.10
2019-02-05T00:18:00.341Z,38.95
2019-02-05T00:20:28.597Z,35.85
2019-02-05T00:22:56.838Z,42.43
2019-02-05T00:25:25.085Z,40.45
2019-02-05T00:27:53.345Z,41.30
2019-02-05T00:30:21.593Z,35.20
2019-02-05T00:32:49.833Z,40.60
2019-02-05T00:35:18.269Z,37.17
2019-02-05T00:37:46.509Z,44.83
2019-02-05T00:40:15.498Z,47.95
2019-02-05T00:42:43.733Z,46.00
2019-02-05T00:45:13.957Z,42.05
2019-02-05T00:47:42.466Z,38.45
2019-02-05T00:50:13.216Z,38.70
2019-02-05T00:52:41.463Z,38.83
2019-02-05T00:55:12.545Z,43.05
2019-02-05T00:57:40.797Z,44.67
2019-02-05T01:00:32.019Z,83.25
2019-02-05T01:03:00.300Z,91.35
2019-02-05T01:05:28.556Z,44.50
2019-02-05T01:07:56.808Z,57.48
2019-02-05T01:10:25.221Z,46.95
2019-02-05T01:12:53.929Z,42.08
2019-02-05T01:15:23.558Z,40.17
2019-02-05T01:17:51.807Z,43.33
2019-02-05T01:20:21.793Z,39.13
2019-02-05T01:22:50.052Z,39.03
2019-02-05T01:25:19.364Z,39.48
2019-02-05T01:27:47.978Z,40.55
2019-02-05T01:30:22.307Z,41.68
2019-02-05T01:32:50.827Z,38.65
2019-02-05T01:35:19.070Z,37.63
2019-02-05T01:37:47.328Z,41.00
2019-02-05T01:40:23.118Z,42.98
2019-02-05T01:42:51.437Z,41.18
2019-02-05T01:45:20.815Z,40.33
2019-02-05T01:47:49.075Z,46.02
2019-02-05T01:50:20.097Z,43.35
2019-02-05T01:52:48.330Z,41.28
2019-02-05T01:55:16.592Z,40.88
2019-02-05T01:57:44.938Z,42.40
2019-02-05T02:00:18.360Z,39.48
2019-02-05T02:02:46.610Z,43.58
2019-02-05T02:05:17.578Z,38.33
2019-02-05T02:07:45.911Z,49.42
2019-02-05T02:10:17.277Z,49.30
2019-02-05T02:12:45.732Z,44.98
2019-02-05T02:15:13.974Z,38.17
2019-02-05T02:17:42.214Z,47.95
2019-02-05T02:20:20.807Z,38.40
2019-02-05T02:22:49.055Z,48.00
2019-02-05T02:25:17.607Z,47.75
2019-02-05T02:27:46.363Z,44.70
2019-02-05T02:30:32.547Z,45.90
2019-02-05T02:33:00.862Z,40.92
2019-02-05T02:35:29.199Z,47.05
2019-02-05T02:37:57.852Z,43.92
2019-02-05T02:40:26.088Z,50.48
2019-02-05T02:42:54.338Z,48.87
2019-02-05T02:45:22.611Z,49.18
2019-02-05T02:47:50.897Z,47.00
2019-02-05T02:50:20.797Z,48.65
2019-02-05T02:52:49.420Z,47.40
2019-02-05T02:55:17.760Z,38.35
2019-02-05T02:57:46.096Z,46.80
2019-02-05T03:00:21.778Z,43.90
2019-02-05T03:02:51.370Z,45.58
2019-02-05T03:05:21.577Z,47.60
2019-02-05T03:07:50.148Z,50.88
2019-02-05T03:10:24.221Z,45.15
2019-02-05T03:12:52.474Z,41.58
2019-02-05T03:15:20.732Z,44.98
2019-02-05T03:17:48.988Z,52.75
2019-02-05T03:20:17.510Z,48.23
2019-02-05T03:22:45.845Z,41.18
2019-02-05T03:25:20.469Z,49.23
2019-02-05T03:27:48.787Z,53.38
2019-02-05T03:30:18.786Z,44.25
2019-02-05T03:32:47.109Z,49.42
2019-02-05T03:35:15.428Z,44.83
2019-02-05T03:37:43.680Z,44.25
2019-02-05T03:40:27.290Z,49.65
2019-02-05T03:42:55.534Z,53.70
2019-02-05T03:45:24.414Z,54.95
2019-02-05T03:47:53.066Z,45.30
2019-02-05T03:50:22.276Z,52.05
2019-02-05T03:52:53.844Z,46.33
2019-02-05T03:55:25.730Z,47.10
2019-02-05T03:58:00.083Z,45.92
2019-02-05T04:00:36.845Z,47.10
2019-02-05T04:03:17.067Z,47.35
2019-02-05T04:05:57.584Z,44.53
2019-02-05T04:08:34.941Z,52.27
2019-02-05T04:11:26.155Z,51.70
2019-02-05T04:14:15.838Z,40.98
2019-02-05T04:17:12.576Z,46.68
2019-02-05T04:19:52.340Z,48.58
2019-02-05T04:22:32.607Z,46.35
2019-02-05T04:25:18.912Z,45.80
2019-02-05T04:30:45.563Z,46.68
2019-02-05T04:33:33.970Z,44.58
2019-02-05T04:36:29.930Z,46.30
2019-02-05T04:39:16.450Z,39.27
2019-02-05T04:41:50.604Z,46.85
2019-02-05T04:44:30.957Z,44.90
2019-02-05T04:47:23.593Z,47.10
2019-02-05T04:50:09.449Z,43.55
2019-02-05T04:52:58.881Z,49.23
2019-02-05T04:55:30.397Z,45.90
2019-02-05T04:58:23.294Z,49.65
2019-02-05T05:01:15.831Z,44.95
2019-02-05T05:04:05.721Z,48.20
2019-02-05T05:07:00.859Z,45.95
2019-02-05T05:09:52.259Z,46.83
2019-02-05T05:12:20.983Z,47.00
2019-02-05T05:14:49.336Z,51.40
2019-02-05T05:17:17.572Z,49.98
2019-02-05T05:19:46.180Z,50.00
2019-02-05T05:22:14.485Z,49.77
2019-02-05T05:24:42.830Z,45.35
2019-02-05T05:27:12.500Z,52.35
2019-02-05T05:29:41.475Z,45.95
2019-02-05T05:32:09.817Z,52.62
2019-02-05T05:34:38.130Z,54.63
2019-02-05T05:37:05.558Z,48.55
2019-02-05T05:39:33.812Z,59.75
2019-02-05T05:42:02.075Z,51.68
2019-02-05T05:44:30.353Z,50.03
2019-02-05T05:46:58.694Z,45.35
2019-02-05T05:49:27.029Z,46.08
2019-02-05T05:51:55.300Z,50.38
2019-02-05T05:54:23.571Z,47.53
2019-02-05T05:56:51.886Z,48.42
2019-02-05T05:59:20.176Z,47.67
2019-02-05T06:01:48.474Z,42.98
2019-02-05T06:04:16.819Z,54.90
2019-02-05T06:06:45.380Z,50.73
2019-02-05T06:09:13.618Z,45.08
2019-02-05T06:11:41.884Z,45.58
2019-02-05T06:14:10.148Z,44.63
2019-02-05T06:16:38.403Z,49.48
2019-02-05T06:19:06.683Z,46.83
2019-02-05T06:21:34.921Z,49.85
2019-02-05T06:24:03.876Z,41.35
2019-02-05T06:26:32.210Z,46.48
2019-02-05T06:29:00.448Z,46.02
2019-02-05T06:31:28.739Z,49.05
2019-02-05T06:33:56.988Z,47.00
2019-02-05T06:36:25.299Z,52.43
2019-02-05T06:38:53.587Z,48.40
2019-02-05T06:41:22.205Z,55.83
2019-02-05T06:43:50.449Z,52.38
2019-02-05T06:46:18.702Z,53.08
2019-02-05T06:48:46.976Z,54.30
2019-02-05T06:51:15.317Z,49.53
2019-02-05T06:53:43.566Z,55.55
2019-02-05T06:56:11.898Z,50.70
2019-02-05T06:58:46.562Z,56.55
2019-02-05T07:01:10.520Z,49.95
2019-02-05T07:03:38.767Z,46.27
2019-02-05T07:06:07.015Z,48.28
2019-02-05T07:08:35.280Z,50.45
2019-02-05T07:11:03.532Z,48.52
2019-02-05T07:13:31.803Z,58.60
2019-02-05T07:16:00.431Z,47.08
2019-02-05T07:18:28.762Z,46.65
2019-02-05T07:20:57.035Z,45.63
2019-02-05T07:23:25.285Z,49.70
2019-02-05T07:25:53.582Z,47.65
2019-02-05T07:28:21.874Z,49.55
2019-02-05T07:30:50.192Z,47.00
2019-02-05T07:33:18.817Z,50.38
2019-02-05T07:35:47.075Z,56.80
2019-02-05T07:38:15.390Z,47.27
2019-02-05T07:40:43.724Z,49.73
2019-02-05T07:43:12.067Z,47.17
2019-02-05T07:45:40.399Z,50.90
2019-02-05T07:48:08.713Z,45.25
2019-02-05T07:50:36.970Z,51.08
2019-02-05T07:53:05.609Z,50.88
2019-02-05T07:55:33.947Z,47.95
2019-02-05T07:58:02.186Z,49.90
2019-02-05T08:00:30.895Z,50.10
2019-02-05T08:02:59.155Z,43.30
2019-02-05T08:05:30.175Z,49.55
2019-02-05T08:07:58.488Z,48.55
2019-02-05T08:10:26.753Z,47.23
2019-02-05T08:12:55.084Z,46.90
2019-02-05T08:15:25.878Z,47.75
2019-02-05T08:17:54.118Z,52.78
2019-02-05T08:20:22.382Z,47.58
2019-02-05T08:22:50.707Z,53.50
2019-02-05T08:25:19.060Z,54.23
2019-02-05T08:27:47.313Z,49.00
2019-02-05T08:30:27.042Z,46.58
2019-02-05T08:32:56.264Z,49.18
2019-02-05T08:35:24.578Z,58.50
2019-02-05T08:37:52.832Z,53.63
2019-02-05T08:40:22.606Z,60.63
2019-02-05T08:42:50.859Z,50.75
2019-02-05T08:45:34.197Z,47.83
2019-02-05T08:48:02.445Z,51.48
2019-02-05T08:50:30.973Z,49.45
2019-02-05T08:52:59.299Z,52.27
2019-02-05T08:55:30.655Z,53.75
2019-02-05T08:58:06.271Z,48.50
2019-02-05T09:00:39.170Z,46.70
2019-02-05T09:03:09.183Z,50.12
2019-02-05T09:05:37.589Z,46.28
2019-02-05T09:08:05.977Z,42.15
2019-02-05T09:10:36.573Z,47.65
2019-02-05T09:13:05.266Z,48.98
2019-02-05T09:15:33.792Z,44.47
2019-02-05T09:18:02.111Z,43.95
2019-02-05T09:20:30.456Z,44.30
2019-02-05T09:22:58.728Z,49.25
2019-02-05T09:25:27.044Z,41.25
2019-02-05T09:27:55.289Z,44.65
2019-02-05T09:30:32.889Z,45.48
2019-02-05T09:33:04.669Z,45.08
2019-02-05T09:35:32.977Z,41.75
2019-02-05T09:38:01.403Z,43.13
2019-02-05T09:40:32.856Z,36.85
2019-02-05T09:43:01.174Z,39.55
2019-02-05T09:45:30.478Z,42.60
2019-02-05T09:47:59.340Z,39.30
2019-02-05T09:50:30.688Z,39.27
2019-02-05T09:52:57.578Z,37.73
2019-02-05T09:55:25.889Z,33.60
2019-02-05T09:57:54.141Z,40.67
2019-02-05T10:00:34.140Z,36.35
2019-02-05T10:03:02.402Z,36.38
2019-02-05T10:05:34.554Z,36.33
2019-02-05T10:08:02.830Z,36.10
2019-02-05T10:10:31.072Z,37.05
2019-02-05T10:12:59.389Z,38.40
2019-02-05T10:15:41.880Z,31.12
2019-02-05T10:18:12.423Z,33.45
2019-02-05T10:20:40.824Z,33.42
2019-02-05T10:23:09.398Z,34.23
2019-02-05T10:25:57.141Z,31.55
2019-02-05T10:28:25.787Z,32.90
2019-02-05T10:30:54.123Z,30.48
2019-02-05T10:33:22.434Z,31.80
2019-02-05T10:35:50.700Z,31.70
2019-02-05T10:38:19.027Z,35.45
2019-02-05T10:40:47.289Z,30.20
2019-02-05T10:43:15.631Z,28.35
2019-02-05T10:45:44.255Z,31.75
2019-02-05T10:48:12.505Z,32.08
2019-02-05T10:50:40.776Z,32.53
2019-02-05T10:53:09.035Z,33.18
2019-02-05T10:55:37.285Z,32.03
2019-02-05T10:58:05.560Z,31.10
2019-02-05T11:00:33.882Z,32.83
2019-02-05T11:03:07.303Z,28.30
2019-02-05T11:05:35.616Z,36.58
2019-02-05T11:08:04.137Z,31.35
2019-02-05T11:10:32.453Z,31.37
2019-02-05T11:13:00.809Z,30.55
2019-02-05T11:15:33.407Z,28.62
2019-02-05T11:18:03.196Z,30.80
2019-02-05T11:20:31.738Z,28.20
2019-02-05T11:23:00.066Z,23.75
2019-02-05T11:25:28.392Z,25.05
2019-02-05T11:27:56.628Z,27.48
2019-02-05T11:30:27.733Z,24.40
2019-02-05T11:32:56.057Z,26.37
2019-02-05T11:35:24.406Z,24.82
2019-02-05T11:37:53.197Z,22.07
2019-02-05T11:40:23.962Z,22.40
2019-02-05T11:42:52.343Z,25.50
2019-02-05T11:45:20.874Z,24.05
2019-02-05T11:47:49.437Z,23.50
2019-02-05T11:50:18.201Z,26.70
2019-02-05T11:52:46.538Z,24.50
2019-02-05T11:55:17.686Z,19.67
2019-02-05T11:57:45.972Z,21.37
2019-02-05T12:00:17.892Z,19.48
2019-02-05T12:02:48.992Z,23.55
2019-02-05T12:05:16.236Z,22.32
2019-02-05T12:07:46.469Z,22.32
2019-02-05T12:10:15.712Z,24.72
2019-02-05T12:12:43.977Z,22.77
2019-02-05T12:15:15.395Z,25.12
2019-02-05T12:17:43.699Z,21.02
2019-02-05T12:20:19.613Z,23.75
2019-02-05T12:22:49.115Z,19.02
2019-02-05T12:25:22.904Z,23.70
2019-02-05T12:27:51.138Z,18.95
2019-02-05T12:30:22.034Z,23.57
2019-02-05T12:32:50.280Z,19.25
2019-02-05T12:35:18.541Z,24.30
2019-02-05T12:37:46.787Z,24.07
2019-02-05T12:40:17.279Z,28.77
2019-02-05T12:42:46.142Z,22.27
2019-02-05T12:45:29.965Z,26.33
2019-02-05T12:47:58.278Z,27.62
2019-02-05T12:50:34.976Z,25.68
2019-02-05T12:53:03.615Z,24.32
2019-02-05T12:55:31.931Z,23.65
2019-02-05T12:58:00.216Z,21.48
2019-02-05T13:00:37.164Z,19.70
2019-02-05T13:03:06.074Z,18.20
2019-02-05T13:05:34.335Z,17.32
2019-02-05T13:08:05.314Z,25.75
2019-02-05T13:10:41.759Z,19.25
2019-02-05T13:13:10.084Z,20.52
2019-02-05T13:15:38.343Z,17.07
2019-02-05T13:18:06.671Z,20.25
2019-02-05T13:20:34.926Z,20.50
2019-02-05T13:23:03.956Z,21.70
2019-02-05T13:25:33.050Z,24.45
2019-02-05T13:28:01.318Z,17.40
2019-02-05T13:30:33.595Z,17.75
2019-02-05T13:33:01.845Z,19.55
2019-02-05T13:35:30.473Z,18.60
2019-02-05T13:37:58.845Z,14.58
2019-02-05T13:40:27.977Z,15.63
2019-02-05T13:42:56.642Z,17.35
2019-02-05T13:45:33.481Z,16.62
2019-02-05T13:48:03.534Z,14.28
2019-02-05T13:50:33.787Z,16.37
2019-02-05T13:53:02.242Z,18.95
2019-02-05T13:55:35.586Z,16.10
2019-02-05T13:58:03.972Z,15.58
2019-02-05T14:00:41.087Z,17.45
2019-02-05T14:03:10.473Z,15.40
2019-02-05T14:05:38.918Z,18.77
2019-02-05T14:08:07.286Z,13.98
2019-02-05T14:10:37.679Z,15.43
2019-02-05T14:13:06.000Z,15.83
2019-02-05T14:15:36.857Z,15.32
2019-02-05T14:18:06.109Z,13.25
2019-02-05T14:20:34.363Z,13.88
2019-02-05T14:23:02.603Z,17.70
2019-02-05T14:25:30.834Z,13.65
2019-02-05T14:27:59.088Z,13.85
2019-02-05T14:30:35.655Z,14.10
2019-02-05T14:33:04.464Z,13.15
2019-02-05T14:35:32.741Z,12.55
2019-02-05T14:38:00.999Z,13.65
2019-02-05T14:40:29.230Z,18.37
2019-02-05T14:42:57.508Z,14.93
2019-02-05T14:45:25.751Z,17.20
2019-02-05T14:47:54.009Z,18.45
2019-02-05T14:50:36.259Z,13.18
2019-02-05T14:53:05.351Z,14.03
2019-02-05T14:55:33.597Z,16.32
2019-02-05T14:58:01.931Z,12.03
2019-02-05T15:00:32.002Z,16.67
2019-02-05T15:03:02.217Z,11.18
2019-02-05T15:05:30.308Z,14.23
2019-02-05T15:07:58.556Z,15.65
2019-02-05T15:10:26.814Z,12.90
2019-02-05T15:12:55.057Z,11.40
2019-02-05T15:15:30.850Z,11.83
2019-02-05T15:17:59.100Z,11.93
2019-02-05T15:20:36.153Z,11.95
2019-02-05T15:23:05.469Z,15.55
2019-02-05T15:25:33.713Z,16.55
2019-02-05T15:28:01.995Z,15.98
2019-02-05T15:30:36.049Z,17.57
2019-02-05T15:33:06.357Z,16.00
2019-02-05T15:35:34.623Z,15.28
2019-02-05T15:38:02.866Z,19.27
2019-02-05T15:40:31.137Z,16.17
2019-02-05T15:42:59.385Z,20.95
2019-02-05T15:45:28.004Z,25.37
2019-02-05T15:47:56.247Z,23.85
2019-02-05T15:50:24.502Z,20.00
2019-02-05T15:52:52.759Z,21.05
2019-02-05T15:55:21.240Z,24.00
2019-02-05T15:57:49.671Z,24.35
2019-02-05T16:00:25.794Z,26.07
2019-02-05T16:02:54.022Z,24.85
2019-02-05T16:05:22.266Z,22.02
2019-02-05T16:07:50.530Z,23.25
2019-02-05T16:10:46.334Z,26.17
2019-02-05T16:13:14.599Z,23.60
2019-02-05T16:15:42.853Z,24.37
2019-02-05T16:18:11.093Z,21.75
2019-02-05T16:20:39.372Z,24.18
2019-02-05T16:23:07.602Z,18.67
2019-02-05T16:25:36.225Z,22.98
2019-02-05T16:28:04.478Z,25.85
2019-02-05T16:30:33.175Z,24.12
2019-02-05T16:33:01.421Z,21.37
2019-02-05T16:35:29.658Z,25.08
2019-02-05T16:37:57.912Z,27.55
2019-02-05T16:40:38.030Z,23.57
2019-02-05T16:43:06.539Z,21.80
2019-02-05T16:45:34.840Z,21.20
2019-02-05T16:48:03.105Z,20.23
2019-02-05T16:50:43.799Z,25.48
2019-02-05T16:53:12.440Z,22.20
2019-02-05T16:55:40.687Z,21.68
2019-02-05T16:58:08.929Z,22.77
2019-02-05T17:00:38.039Z,28.87
2019-02-05T17:03:06.947Z,50.60
2019-02-05T17:05:39.817Z,43.15
2019-02-05T17:08:08.601Z,35.15
2019-02-05T17:10:36.841Z,31.55
2019-02-05T17:13:05.384Z,22.42
2019-02-05T17:15:33.650Z,26.80
2019-02-05T17:18:01.911Z,22.77
2019-02-05T17:20:33.649Z,24.63
2019-02-05T17:23:02.031Z,21.57
2019-02-05T17:25:30.337Z,29.72
2019-02-05T17:28:00.521Z,31.73
2019-02-05T17:30:31.100Z,27.25
2019-02-05T17:32:59.364Z,28.02
2019-02-05T17:35:27.610Z,25.27
2019-02-05T17:37:55.882Z,25.08
2019-02-05T17:40:25.867Z,27.60
2019-02-05T17:42:55.022Z,26.65
2019-02-05T17:45:42.372Z,26.82
2019-02-05T17:48:13.338Z,26.90
2019-02-05T17:50:41.997Z,32.00
2019-02-05T17:53:10.289Z,32.15
2019-02-05T17:55:38.529Z,30.82
2019-02-05T17:58:06.801Z,27.27
2019-02-05T18:00:48.807Z,27.85
2019-02-05T18:03:17.236Z,29.77
2019-02-05T18:05:45.682Z,28.70
2019-02-05T18:08:14.156Z,31.30
2019-02-05T18:10:42.657Z,34.58
2019-02-05T18:13:11.210Z,35.52
2019-02-05T18:15:44.169Z,37.10
2019-02-05T18:18:12.448Z,38.05
2019-02-05T18:20:40.788Z,30.88
2019-02-05T18:23:09.159Z,36.25
2019-02-05T18:25:37.611Z,34.38
2019-02-05T18:28:05.968Z,30.30
2019-02-05T18:30:35.691Z,28.25
2019-02-05T18:33:05.864Z,34.98
2019-02-05T18:35:34.046Z,34.55
2019-02-05T18:38:08.351Z,42.70
2019-02-05T18:40:36.915Z,31.75
2019-02-05T18:43:06.143Z,27.65
2019-02-05T18:45:34.508Z,31.65
2019-02-05T18:48:02.863Z,32.63
2019-02-05T18:50:50.617Z,30.57
2019-02-05T18:53:18.919Z,30.95
2019-02-05T18:55:48.021Z,35.83
2019-02-05T18:58:16.424Z,35.58
2019-02-05T19:00:46.102Z,36.15
2019-02-05T19:03:15.983Z,28.20
2019-02-05T19:06:11.867Z,32.25
2019-02-05T19:08:40.146Z,29.70
2019-02-05T19:11:08.753Z,37.98
2019-02-05T19:13:37.020Z,30.35
2019-02-05T19:16:05.345Z,27.17
2019-02-05T19:18:33.632Z,31.23
2019-02-05T19:21:01.988Z,34.27
2019-02-05T19:23:30.296Z,32.58
2019-02-05T19:26:00.180Z,32.80
2019-02-05T19:28:30.083Z,33.88
2019-02-05T19:30:59.965Z,31.70
2019-02-05T19:33:28.221Z,33.25
2019-02-05T19:35:56.631Z,27.22
2019-02-05T19:38:24.865Z,27.32
2019-02-05T19:40:57.480Z,32.53
2019-02-05T19:43:23.651Z,30.08
2019-02-05T19:45:59.670Z,31.55
2019-02-05T19:48:29.557Z,39.55
2019-02-05T19:50:58.196Z,38.83
2019-02-05T19:53:26.509Z,34.92
2019-02-05T19:55:55.265Z,40.10
2019-02-05T19:58:23.493Z,31.80
2019-02-05T20:00:52.133Z,35.15
2019-02-05T20:03:20.385Z,35.05
2019-02-05T20:05:48.648Z,37.48
2019-02-05T20:08:16.922Z,38.80
2019-02-05T20:10:45.217Z,36.93
2019-02-05T20:13:13.468Z,41.00
2019-02-05T20:15:41.739Z,38.92
2019-02-05T20:18:10.465Z,37.28
2019-02-05T20:20:38.712Z,45.85
2019-02-05T20:23:06.980Z,43.65
2019-02-05T20:25:35.266Z,40.92
2019-02-05T20:28:03.495Z,33.95
2019-02-05T20:30:31.755Z,44.08
2019-02-05T20:33:00.025Z,40.60
2019-02-05T20:35:28.276Z,40.00
2019-02-05T20:37:56.618Z,48.35
2019-02-05T20:40:27.224Z,49.58
2019-02-05T20:42:55.489Z,46.92
2019-02-05T20:45:23.881Z,46.42
2019-02-05T20:47:52.145Z,38.92
2019-02-05T20:50:21.218Z,38.88
2019-02-05T20:52:49.589Z,39.13
2019-02-05T20:55:19.130Z,46.70
2019-02-05T20:57:47.549Z,46.48
2019-02-05T21:00:18.948Z,45.45
2019-02-05T21:02:47.267Z,49.27
2019-02-05T21:05:19.530Z,48.23
2019-02-05T21:07:48.226Z,45.08
2019-02-05T21:10:28.261Z,52.55
2019-02-05T21:12:56.502Z,47.78
2019-02-05T21:15:24.805Z,51.42
2019-02-05T21:17:53.075Z,58.23
2019-02-05T21:20:29.569Z,45.30
2019-02-05T21:22:56.689Z,44.23
2019-02-05T21:25:24.049Z,46.70
2019-02-05T21:27:52.292Z,51.92
2019-02-05T21:30:21.586Z,53.33
2019-02-05T21:32:49.907Z,54.77
2019-02-05T21:35:18.155Z,51.80
2019-02-05T21:37:46.411Z,67.37
2019-02-05T21:40:27.814Z,62.25
2019-02-05T21:42:56.098Z,62.27
2019-02-05T21:45:29.587Z,59.75
2019-02-05T21:47:57.864Z,52.93
2019-02-05T21:50:26.111Z,54.73
2019-02-05T21:52:54.356Z,57.45
2019-02-05T21:55:26.561Z,47.50
2019-02-05T21:57:54.814Z,46.90
2019-02-05T22:00:31.988Z,50.43
2019-02-05T22:03:00.303Z,47.73
2019-02-05T22:05:30.343Z,46.83
2019-02-05T22:07:59.039Z,48.33
2019-02-05T22:10:27.442Z,51.00
2019-02-05T22:12:55.694Z,49.65
2019-02-05T22:15:24.228Z,49.23
2019-02-05T22:17:52.557Z,44.27
2019-02-05T22:20:23.473Z,50.83
2019-02-05T22:22:51.744Z,55.60
2019-02-05T22:25:24.989Z,53.23
2019-02-05T22:27:53.324Z,49.03
2019-02-05T22:30:23.721Z,47.90
2019-02-05T22:32:52.037Z,47.67
2019-02-05T22:35:20.546Z,43.98
2019-02-05T22:37:49.085Z,46.63
2019-02-05T22:40:19.520Z,45.20
2019-02-05T22:42:47.777Z,48.85
2019-02-05T22:45:21.465Z,46.55
2019-02-05T22:47:49.943Z,51.63
2019-02-05T22:50:21.322Z,43.40
2019-02-05T22:52:49.673Z,49.50
2019-02-05T22:55:18.002Z,50.90
2019-02-05T22:57:46.328Z,51.02
2019-02-05T23:00:34.717Z,53.65
2019-02-05T23:03:03.063Z,52.53
2019-02-05T23:05:50.925Z,50.43
2019-02-05T23:08:19.271Z,47.17
2019-02-05T23:11:14.958Z,46.40
2019-02-05T23:13:43.362Z,61.08
2019-02-05T23:16:11.618Z,59.03
2019-02-05T23:18:40.016Z,50.33
2019-02-05T23:21:08.328Z,53.55
2019-02-05T23:23:36.657Z,49.20
2019-02-05T23:26:05.200Z,50.98
2019-02-05T23:28:33.923Z,54.23
2019-02-05T23:31:02.210Z,51.80
2019-02-05T23:33:30.446Z,58.68
2019-02-05T23:35:58.701Z,53.48
2019-02-05T23:38:29.362Z,56.70
2019-02-05T23:40:56.969Z,53.05
2019-02-05T23:43:25.205Z,51.92
2019-02-05T23:46:01.473Z,51.68
2019-02-05T23:48:23.441Z,48.68
2019-02-05T23:50:51.674Z,51.33
2019-02-05T23:53:19.939Z,53.38
2019-02-05T23:55:48.257Z,46.92
2019-02-05T23:58:16.494Z,52.35
